Terminal Aerodrome Forecast
Issued by NWS Sioux Falls, SD

Home | Current Version | Previous Version | Graphics & Text | Print | Product List | Glossary On
Versions: 1 2 3 4 5 6 7 8 9 10 11 12 13 14 15 16 17
000
FTUS43 KFSD 182330
TAFSUX
TAF
KSUX 182330Z 1900/1924 33014KT P6SM OVC020
     FM190200 34009KT P6SM OVC035
     FM190900 34006KT P6SM SCT150
     FM191600 05005KT P6SM FEW150=

USA.gov is the U.S. government's official web portal to all federal, state and local government web resources and services.